TAF KSMF
KSMF 081725Z 0818/0918 VRB03KT 1/2SM FG OVC003 TEMPO 0818/0820 1SM BR FM082000 18004KT 5SM BR OVC009 FM082300 18005KT 5SM BR OVC015 FM090800 16005KT 5SM -RA BR OVC010=
METAR KSMF
WC KSMF
WS KSMF
WV KSMF